Windsor, Ontario

4:11 AM EST on January 27, 2015 (GMT -0500)
LaSalle North | Change Station
CLOSE
Current Station
Personal Weather Station
Location: LaSalle, ONTARIO
Elevation: 594 ft
Nearby Weather Stations

Elev 594 ft 42.25 °N, 83.05 °W | Updated 2 minutes ago

Clear
Clear
5.2 °F
Feels Like 5 °F
N
0.0
Wind Variable Wind from East

Today is forecast to be nearly the same temperature as yesterday.

Today
High -- | Low -- °F
--% Chance of Precip.
Yesterday
High -- | Low -- °F
Precip. -- in
7:50 AM 5:39 PM
First Quarter, 52% visible
Pressure 30.02 in
Visibility 15.0 miles
Clouds Few 2500 ft
Windchill 5 °F
Dew Point 3 °F
Humidity 89%
Rainfall 0.00 in
Snow Depth Not available.
UV 0 out of 12
Pollen Not available.
Air Quality Not available.
Flu Activity Not available.
METAR CYQG 270900Z 36006KT 15SM FEW025 M12/M15 A2999 RMK SC1 SLP166

More Conditions Fewer Conditions

Pressure 30.02 in
Visibility 15.0 miles
Clouds Few 2500 ft
Windchill 5 °F
Dew Point 3 °F
Humidity 89%
Rainfall 0.00 in
Snow Depth Not available.
UV 0 out of 12
Pollen Not available.
Air Quality Not available.
Flu Activity Not available.
METAR CYQG 270900Z 36006KT 15SM FEW025 M12/M15 A2999 RMK SC1 SLP166

More Conditions Fewer Conditions

10-Day Weather Forecast

Almanac

Astronomy

Jan. 27, 2015 Rise Set
Actual Time
Civil Twilight
Nautical Twilight
Astronomical Twilight
Moon
Length of Visible Light
Length of Day
Tomorrow will be .
, % of the Moon is Illuminated

Today's Extremes

Country Highs Country Lows

Community

WunderPhotos

Upload Photos

1,790,555 photos uploaded!

WunderBlogs® & News

Nearby

Air Quality

  Air Quality AQ Index Pollutant
Not available.

Snow Depth

Station Depth Elevation

Earthquake Activity

City Distance Mag. Time & Date
Minimum magnitude displayed is 2.5.

Coastal Water Temperatures

Place Temperature

Nearby Weather Stations